Time;durP1;ratioP1;P1;durP2;ratioP2;P2;SDS_P1;SDS_P2;PMS_P1;PMS_P2;Temp;Humidity;BMP_temperature;BMP_pressure;BME280_temperature;BME280_humidity;BME280_pressure;Samples;Min_cycle;Max_cycle;Signal;HPM_P1;HPM_P2
2020/12/04 00:01:56;;;;;;;109.80;36.30;;;0.80;99.90;;;;;;4446669;27;658939;-60
2020/12/04 00:04:43;;;;;;;85.87;29.97;;;0.80;99.90;;;;;;4465271;27;659059;-60
2020/12/04 00:07:30;;;;;;;83.80;29.43;;;0.90;99.90;;;;;;4449156;28;658277;-59
2020/12/04 00:10:17;;;;;;;94.80;32.60;;;0.90;99.90;;;;;;4461574;28;658716;-59
2020/12/04 00:13:04;;;;;;;75.50;27.07;;;0.90;99.90;;;;;;4457389;28;657833;-61
2020/12/04 00:15:51;;;;;;;67.67;25.30;;;0.90;99.90;;;;;;4469893;28;658525;-59
2020/12/04 00:18:39;;;;;;;65.77;23.97;;;0.80;99.90;;;;;;4466287;28;659223;-60
2020/12/04 00:21:27;;;;;;;66.03;25.20;;;0.80;99.90;;;;;;4439596;28;658664;-59
2020/12/04 00:24:14;;;;;;;64.97;25.73;;;0.80;99.90;;;;;;4468047;28;657116;-59
2020/12/04 00:27:01;;;;;;;63.80;24.20;;;0.90;99.90;;;;;;4441108;28;657603;-60
2020/12/04 00:29:48;;;;;;;65.47;23.13;;;0.80;99.90;;;;;;4467896;28;658877;-59
2020/12/04 00:32:35;;;;;;;58.90;22.00;;;0.80;99.90;;;;;;4444328;28;657859;-62
2020/12/04 00:35:22;;;;;;;68.17;22.73;;;0.90;99.90;;;;;;4471641;28;658361;-60
2020/12/04 00:38:10;;;;;;;61.65;23.00;;;1.00;99.90;;;;;;4444763;28;657473;-61
2020/12/04 00:40:56;;;;;;;56.10;21.57;;;1.00;99.90;;;;;;4463500;28;658587;-59
2020/12/04 00:43:43;;;;;;;56.60;20.63;;;1.10;99.90;;;;;;4464377;28;658214;-60
2020/12/04 00:46:30;;;;;;;51.83;20.27;;;1.20;99.90;;;;;;4448920;28;657350;-59
2020/12/04 00:49:17;;;;;;;50.55;20.38;;;1.30;99.90;;;;;;4452144;28;659379;-59
2020/12/04 00:52:05;;;;;;;48.13;19.77;;;1.30;99.90;;;;;;4447506;28;657442;-61
2020/12/04 00:54:52;;;;;;;49.80;19.23;;;1.40;99.90;;;;;;4462689;28;659633;-59
2020/12/04 00:57:39;;;;;;;53.10;19.60;;;1.40;99.90;;;;;;4445877;28;658102;-60
2020/12/04 01:00:26;;;;;;;52.83;18.93;;;1.40;99.90;;;;;;4457609;28;658031;-59
2020/12/04 01:03:13;;;;;;;54.72;20.13;;;1.40;99.90;;;;;;4467792;28;659141;-60
2020/12/04 01:06:01;;;;;;;55.17;19.38;;;1.40;99.90;;;;;;4443865;28;657603;-59
2020/12/04 01:08:49;;;;;;;54.67;19.90;;;1.40;99.90;;;;;;4460102;28;659298;-59
2020/12/04 01:11:36;;;;;;;51.50;20.17;;;1.40;99.90;;;;;;4440242;28;658549;-59
2020/12/04 01:14:23;;;;;;;57.00;19.57;;;1.40;99.90;;;;;;4459372;28;658914;-59
2020/12/04 01:17:09;;;;;;;55.67;19.03;;;1.40;99.90;;;;;;4445672;28;657718;-61
2020/12/04 01:19:56;;;;;;;50.93;19.40;;;1.30;99.90;;;;;;4465190;28;658909;-59
2020/12/04 01:22:43;;;;;;;52.93;19.30;;;1.30;99.90;;;;;;4460854;28;658140;-60
2020/12/04 01:25:31;;;;;;;54.90;21.80;;;1.20;99.90;;;;;;4442734;28;657656;-60
2020/12/04 01:28:18;;;;;;;43.83;18.23;;;1.20;99.90;;;;;;4465915;28;657308;-59
2020/12/04 01:31:05;;;;;;;53.17;21.42;;;1.10;99.90;;;;;;4434924;28;657676;-59
2020/12/04 01:33:52;;;;;;;53.60;22.47;;;1.00;99.90;;;;;;4458370;28;658707;-59
2020/12/04 01:36:40;;;;;;;44.67;18.17;;;0.90;99.90;;;;;;4442474;28;658039;-62
2020/12/04 01:39:27;;;;;;;46.33;18.67;;;0.90;99.90;;;;;;4458904;28;658940;-59
2020/12/04 01:42:15;;;;;;;49.97;20.67;;;0.90;99.90;;;;;;4458674;28;657225;-59
2020/12/04 01:45:02;;;;;;;46.77;19.33;;;0.90;99.90;;;;;;4439174;28;658966;-59
2020/12/04 01:47:49;;;;;;;49.50;20.30;;;0.90;99.90;;;;;;4461005;28;657544;-59
2020/12/04 01:50:36;;;;;;;50.77;20.77;;;0.90;99.90;;;;;;4436465;28;657433;-59
2020/12/04 01:53:22;;;;;;;46.70;20.77;;;0.90;99.90;;;;;;4460306;28;659102;-59
2020/12/04 01:56:09;;;;;;;52.08;20.77;;;0.90;99.90;;;;;;4434309;28;658195;-61
2020/12/04 01:58:58;;;;;;;46.25;20.00;;;0.90;99.90;;;;;;4461093;28;657468;-60
2020/12/04 02:01:45;;;;;;;46.13;19.63;;;0.90;99.90;;;;;;4443274;28;657492;-60
2020/12/04 02:04:32;;;;;;;39.23;16.13;;;0.90;99.90;;;;;;4452852;28;659328;-59
2020/12/04 02:07:24;;;;;;;40.20;16.47;;;1.00;99.90;;;;;;4467192;28;657704;-61
2020/12/04 02:10:13;;;;;;;46.30;18.70;;;1.00;99.90;;;;;;4441144;28;658165;-60
2020/12/04 02:13:00;;;;;;;46.78;18.60;;;1.00;99.90;;;;;;4434642;28;657413;-59
2020/12/04 02:15:48;;;;;;;53.53;20.27;;;1.10;99.90;;;;;;4461943;28;658292;-59
2020/12/04 02:18:36;;;;;;;46.63;19.70;;;1.10;99.90;;;;;;4449642;28;658720;-60
2020/12/04 02:21:25;;;;;;;40.30;16.03;;;1.10;99.90;;;;;;4453490;28;657167;-60
2020/12/04 02:24:13;;;;;;;44.10;18.20;;;1.10;99.90;;;;;;4434406;28;658736;-59
2020/12/04 02:27:00;;;;;;;44.87;18.90;;;1.10;99.90;;;;;;4444134;28;657509;-61
2020/12/04 02:29:47;;;;;;;57.63;22.83;;;1.00;99.90;;;;;;4464764;28;658477;-59
2020/12/04 02:32:35;;;;;;;52.83;18.93;;;1.00;99.90;;;;;;4450110;28;657663;-61
2020/12/04 02:35:22;;;;;;;41.80;18.17;;;1.00;99.90;;;;;;4457185;28;658636;-60
2020/12/04 02:38:09;;;;;;;41.40;18.07;;;1.10;99.90;;;;;;4452193;28;658757;-60
2020/12/04 02:40:56;;;;;;;43.83;17.17;;;1.10;99.90;;;;;;4440517;28;658408;-60
2020/12/04 02:43:43;;;;;;;50.60;19.57;;;1.10;99.90;;;;;;4460689;28;657778;-59
2020/12/04 02:46:30;;;;;;;42.53;18.03;;;1.10;99.90;;;;;;4440424;28;657495;-60
2020/12/04 02:49:20;;;;;;;34.00;14.90;;;1.10;99.90;;;;;;4460570;28;659079;-59
2020/12/04 02:52:07;;;;;;;39.80;15.43;;;1.10;99.90;;;;;;4445002;28;657753;-60
2020/12/04 02:54:55;;;;;;;37.47;15.30;;;1.10;99.90;;;;;;4457617;28;657454;-61
2020/12/04 02:57:42;;;;;;;39.33;15.43;;;1.10;99.90;;;;;;4460680;28;659188;-59
2020/12/04 03:00:29;;;;;;;37.73;15.67;;;1.10;99.90;;;;;;4445522;28;657616;-61
2020/12/04 03:03:16;;;;;;;34.47;14.13;;;1.10;99.90;;;;;;4463405;28;658849;-61
2020/12/04 03:06:03;;;;;;;37.80;14.27;;;1.20;99.90;;;;;;4456002;28;659239;-60
2020/12/04 03:08:51;;;;;;;34.40;13.33;;;1.10;99.90;;;;;;4441592;28;657633;-60
2020/12/04 03:11:39;;;;;;;33.50;13.00;;;1.00;99.90;;;;;;4462880;28;657867;-60
2020/12/04 03:14:26;;;;;;;29.53;13.30;;;0.90;99.90;;;;;;4442099;28;658912;-61
2020/12/04 03:17:13;;;;;;;26.93;12.03;;;0.80;99.90;;;;;;4455015;28;657624;-60
2020/12/04 03:20:00;;;;;;;30.27;12.67;;;0.80;99.90;;;;;;4435561;28;657616;-61
2020/12/04 03:22:47;;;;;;;31.80;12.60;;;0.70;99.90;;;;;;4456061;28;658814;-60
2020/12/04 03:25:34;;;;;;;29.17;12.33;;;0.60;99.90;;;;;;4446312;28;657942;-62
2020/12/04 03:28:23;;;;;;;30.70;12.60;;;0.50;99.90;;;;;;4465934;28;657138;-59
2020/12/04 03:31:10;;;;;;;26.10;11.73;;;0.50;99.90;;;;;;4445215;28;658244;-60
2020/12/04 03:33:57;;;;;;;30.40;12.60;;;0.50;99.90;;;;;;4464085;28;658699;-59
2020/12/04 03:36:44;;;;;;;28.90;12.73;;;0.30;99.90;;;;;;4445415;28;657586;-61
2020/12/04 03:39:31;;;;;;;30.80;13.47;;;0.20;99.90;;;;;;4470933;28;657490;-60
2020/12/04 03:42:18;;;;;;;36.83;14.13;;;0.10;99.90;;;;;;4455754;28;657476;-59
2020/12/04 03:45:06;;;;;;;33.40;13.73;;;0.10;99.90;;;;;;4440958;28;657582;-60
2020/12/04 03:47:53;;;;;;;31.23;13.97;;;0.10;99.90;;;;;;4458147;28;657867;-59
2020/12/04 03:50:40;;;;;;;32.30;12.77;;;0.10;99.90;;;;;;4439813;28;657851;-60
2020/12/04 03:53:27;;;;;;;29.10;12.10;;;-0.10;99.90;;;;;;4464651;28;658465;-59
2020/12/04 03:56:14;;;;;;;31.30;13.40;;;-0.10;99.90;;;;;;4443754;28;661228;-61
2020/12/04 03:59:01;;;;;;;35.27;15.17;;;-0.10;99.90;;;;;;4455701;28;658620;-60
2020/12/04 04:01:49;;;;;;;47.60;17.67;;;0.00;99.90;;;;;;4453135;28;659143;-60
2020/12/04 04:04:36;;;;;;;60.83;21.37;;;0.00;99.90;;;;;;4430403;28;659456;-59
2020/12/04 04:07:23;;;;;;;52.03;20.57;;;0.10;99.90;;;;;;4459392;28;658806;-60
2020/12/04 04:10:10;;;;;;;36.23;15.90;;;0.10;99.90;;;;;;4444525;28;658553;-60
2020/12/04 04:12:57;;;;;;;35.97;15.48;;;0.20;99.90;;;;;;4452945;28;658753;-59
2020/12/04 04:15:44;;;;;;;36.47;14.73;;;0.40;99.90;;;;;;4444554;28;658384;-61
2020/12/04 04:18:32;;;;;;;36.23;15.63;;;0.40;99.90;;;;;;4461152;28;658218;-60
2020/12/04 04:21:19;;;;;;;46.00;18.73;;;0.50;99.90;;;;;;4432426;28;657524;-61
2020/12/04 04:24:06;;;;;;;68.67;26.07;;;0.70;99.90;;;;;;4463906;28;657478;-60
2020/12/04 04:26:53;;;;;;;76.93;27.30;;;0.70;99.90;;;;;;4459246;28;658401;-60
2020/12/04 04:29:40;;;;;;;88.53;33.80;;;0.70;99.90;;;;;;4443848;28;657711;-61
2020/12/04 04:32:27;;;;;;;80.60;29.67;;;0.70;99.90;;;;;;4467734;28;658878;-60
2020/12/04 04:35:15;;;;;;;76.33;27.40;;;0.70;99.90;;;;;;4443803;28;657850;-61
2020/12/04 04:38:02;;;;;;;63.50;23.63;;;0.70;99.90;;;;;;4468307;28;658575;-60
2020/12/04 04:40:56;;;;;;;51.23;20.20;;;0.70;99.90;;;;;;4450952;28;657580;-62
2020/12/04 04:43:43;;;;;;;43.03;17.23;;;0.70;99.90;;;;;;4444640;28;657486;-60
2020/12/04 04:46:35;;;;;;;41.50;16.60;;;0.80;99.90;;;;;;4446572;28;657706;-61
2020/12/04 04:49:27;;;;;;;39.00;15.70;;;0.70;99.90;;;;;;4441916;28;658987;-62
2020/12/04 04:52:16;;;;;;;40.50;17.53;;;0.60;99.90;;;;;;4429360;28;657885;-62
2020/12/04 04:55:03;;;;;;;60.77;22.87;;;0.60;99.90;;;;;;4458643;28;659406;-60
2020/12/04 04:57:50;;;;;;;74.10;26.23;;;0.50;99.90;;;;;;4442088;28;657588;-61
2020/12/04 05:00:37;;;;;;;79.70;31.00;;;0.40;99.90;;;;;;4467664;28;659051;-61
2020/12/04 05:03:24;;;;;;;129.23;43.50;;;0.30;99.90;;;;;;4453580;28;657242;-60
2020/12/04 05:06:11;;;;;;;127.17;39.23;;;0.20;99.90;;;;;;4446472;28;658718;-60
2020/12/04 05:08:59;;;;;;;119.73;39.57;;;0.20;99.90;;;;;;4466112;28;660210;-59
2020/12/04 05:11:55;;;;;;;133.27;45.40;;;0.20;99.90;;;;;;4432319;28;659629;-61
2020/12/04 05:14:42;;;;;;;138.10;48.50;;;0.30;99.90;;;;;;4443462;28;659838;-59
2020/12/04 05:17:29;;;;;;;138.50;48.00;;;0.20;99.90;;;;;;4443692;28;658223;-62
2020/12/04 05:20:16;;;;;;;158.27;53.00;;;0.20;99.90;;;;;;4469935;28;658728;-60
2020/12/04 05:23:03;;;;;;;155.57;52.87;;;0.20;99.90;;;;;;4468743;28;658830;-60
2020/12/04 05:25:52;;;;;;;125.17;43.17;;;0.20;99.90;;;;;;4447095;28;658734;-60
2020/12/04 05:28:39;;;;;;;114.43;40.07;;;0.20;99.90;;;;;;4461651;28;658599;-60
2020/12/04 05:31:30;;;;;;;133.70;46.23;;;0.20;99.90;;;;;;4443010;28;658665;-60
2020/12/04 05:34:21;;;;;;;106.90;36.70;;;0.20;99.90;;;;;;4446910;28;659944;-60
2020/12/04 05:37:09;;;;;;;116.50;39.23;;;0.30;99.90;;;;;;4446399;28;660225;-60
2020/12/04 05:39:57;;;;;;;120.50;41.07;;;0.30;99.90;;;;;;4438488;28;660596;-60
2020/12/04 05:42:45;;;;;;;157.07;53.57;;;0.50;99.90;;;;;;4468514;28;658571;-60
2020/12/04 05:45:32;;;;;;;119.13;42.63;;;0.40;99.90;;;;;;4439217;28;659792;-60
2020/12/04 05:48:19;;;;;;;90.00;35.83;;;0.50;99.90;;;;;;4458256;28;658716;-62
2020/12/04 05:51:06;;;;;;;58.00;22.73;;;0.50;99.90;;;;;;4465501;28;657443;-61
2020/12/04 05:53:53;;;;;;;58.40;22.70;;;0.60;99.90;;;;;;4454739;28;658928;-60
2020/12/04 05:56:40;;;;;;;57.40;21.48;;;0.70;99.90;;;;;;4451639;28;659228;-60
2020/12/04 05:59:28;;;;;;;52.50;20.20;;;0.80;99.90;;;;;;4454965;28;660659;-60
2020/12/04 06:02:15;;;;;;;49.25;20.77;;;0.90;99.90;;;;;;4451545;28;657656;-60
2020/12/04 06:05:02;;;;;;;47.13;20.38;;;1.00;99.90;;;;;;4454667;28;658512;-60
2020/12/04 06:07:50;;;;;;;45.90;19.65;;;1.10;99.90;;;;;;4451494;28;657704;-62
2020/12/04 06:10:37;;;;;;;54.47;21.80;;;1.10;99.90;;;;;;4465739;28;658131;-60
2020/12/04 06:13:23;;;;;;;49.30;20.47;;;1.20;99.90;;;;;;4467501;28;657290;-60
2020/12/04 06:16:15;;;;;;;44.03;20.60;;;1.30;99.90;;;;;;4444147;28;657673;-60
2020/12/04 06:19:02;;;;;;;41.57;17.30;;;1.40;99.90;;;;;;4447218;28;657773;-60
2020/12/04 06:21:49;;;;;;;38.53;15.97;;;1.40;99.90;;;;;;4457276;28;658607;-62
2020/12/04 06:25:01;;;;;;;38.37;14.87;;;1.50;99.90;;;;;;4473898;28;657664;-60
2020/12/04 06:27:48;;;;;;;34.50;16.33;;;1.60;99.90;;;;;;4443211;28;657544;-60
2020/12/04 06:30:35;;;;;;;33.73;16.20;;;1.60;99.90;;;;;;4451300;28;657724;-61
2020/12/04 06:33:35;;;;;;;34.60;14.97;;;1.70;99.90;;;;;;4456590;28;658841;-60
2020/12/04 06:36:35;;;;;;;30.63;12.70;;;1.60;99.90;;;;;;4445763;28;657568;-60
2020/12/04 06:39:30;;;;;;;32.13;13.23;;;1.80;99.90;;;;;;4440042;28;658603;-60
2020/12/04 06:42:27;;;;;;;27.93;12.70;;;1.90;99.90;;;;;;4419018;28;658696;-60
2020/12/04 06:45:14;;;;;;;29.13;12.95;;;2.00;99.90;;;;;;4420448;28;659266;-62
2020/12/04 06:48:11;;;;;;;27.33;12.32;;;2.10;99.90;;;;;;4465860;28;658898;-60
2020/12/04 06:50:59;;;;;;;30.20;12.70;;;2.20;99.90;;;;;;4440675;28;657770;-60
2020/12/04 06:53:52;;;;;;;30.40;14.07;;;2.20;99.90;;;;;;4446462;28;658698;-60
2020/12/04 06:56:39;;;;;;;33.40;15.77;;;2.30;99.90;;;;;;4447358;28;658204;-61
2020/12/04 06:59:28;;;;;;;32.40;14.97;;;2.40;99.90;;;;;;4448581;28;657983;-61
2020/12/04 07:02:16;;;;;;;36.67;15.70;;;2.50;99.90;;;;;;4445397;28;657585;-62
2020/12/04 07:05:03;;;;;;;34.40;15.77;;;2.50;99.90;;;;;;4464395;28;657507;-60
2020/12/04 07:07:51;;;;;;;35.73;17.00;;;2.50;99.90;;;;;;4442990;28;659471;-62
2020/12/04 07:10:38;;;;;;;43.13;17.27;;;2.60;99.90;;;;;;4463465;27;658692;-61
2020/12/04 07:13:25;;;;;;;49.33;19.17;;;2.70;99.90;;;;;;4444636;27;657397;-61
2020/12/04 07:16:12;;;;;;;45.03;17.30;;;2.70;99.90;;;;;;4469381;28;658575;-61
2020/12/04 07:18:59;;;;;;;68.93;25.97;;;2.80;99.90;;;;;;4450099;28;657924;-63
2020/12/04 07:21:46;;;;;;;66.33;23.40;;;2.80;99.90;;;;;;4465423;28;657693;-61
2020/12/04 07:24:34;;;;;;;51.80;21.87;;;2.80;99.90;;;;;;4467467;28;657625;-61
2020/12/04 07:27:26;;;;;;;88.23;32.13;;;2.90;99.90;;;;;;4450336;28;658919;-60
2020/12/04 07:30:14;;;;;;;61.20;22.83;;;2.90;99.90;;;;;;4446994;28;658718;-61
2020/12/04 07:33:01;;;;;;;62.40;24.63;;;2.90;99.90;;;;;;4445830;28;659529;-61
2020/12/04 07:35:48;;;;;;;72.27;28.07;;;2.90;99.90;;;;;;4469178;28;658624;-61
2020/12/04 07:38:35;;;;;;;62.63;25.87;;;3.00;99.90;;;;;;4450830;28;657597;-60
2020/12/04 07:41:32;;;;;;;56.57;23.77;;;3.00;99.90;;;;;;4472548;28;657996;-61
2020/12/04 07:44:27;;;;;;;56.58;23.65;;;3.00;99.90;;;;;;4437134;28;657399;-62
2020/12/04 07:47:14;;;;;;;47.90;19.93;;;3.00;99.90;;;;;;4446263;28;658361;-60
2020/12/04 07:50:02;;;;;;;46.87;21.50;;;3.00;99.90;;;;;;4449639;28;658167;-60
2020/12/04 07:52:52;;;;;;;49.77;22.30;;;3.10;99.90;;;;;;4463284;28;657523;-62
2020/12/04 07:55:39;;;;;;;46.03;20.63;;;3.40;99.90;;;;;;4449850;28;657891;-62
2020/12/04 07:58:27;;;;;;;39.77;19.07;;;3.30;99.90;;;;;;4472596;28;657507;-60
2020/12/04 08:01:14;;;;;;;40.27;19.40;;;3.30;99.90;;;;;;4450655;28;657518;-63
2020/12/04 08:04:01;;;;;;;50.60;21.77;;;3.50;99.90;;;;;;4457631;28;657467;-60
2020/12/04 08:06:48;;;;;;;64.18;23.80;;;3.50;99.90;;;;;;4467704;28;658484;-60
2020/12/04 08:09:39;;;;;;;47.67;22.23;;;3.60;99.90;;;;;;4449540;28;658229;-61
2020/12/04 08:12:28;;;;;;;43.57;18.87;;;3.60;99.90;;;;;;4441299;28;658959;-60
2020/12/04 08:15:17;;;;;;;45.30;18.23;;;3.70;99.90;;;;;;4448989;28;657442;-61
2020/12/04 08:18:04;;;;;;;52.20;22.70;;;3.70;99.90;;;;;;4466822;28;658138;-60
2020/12/04 08:20:51;;;;;;;49.30;22.50;;;3.80;99.90;;;;;;4443329;28;658502;-60
2020/12/04 08:23:38;;;;;;;49.77;22.50;;;3.80;99.90;;;;;;4460074;28;658015;-60
2020/12/04 08:26:25;;;;;;;53.67;24.83;;;3.80;99.90;;;;;;4448579;28;657485;-61
2020/12/04 08:29:13;;;;;;;44.90;21.57;;;3.90;99.90;;;;;;4458123;28;658651;-60
2020/12/04 08:32:22;;;;;;;49.00;21.47;;;4.00;99.90;;;;;;4439618;28;657800;-60
2020/12/04 08:35:13;;;;;;;45.17;19.87;;;4.00;99.90;;;;;;4434369;28;657212;-60
2020/12/04 08:38:05;;;;;;;51.13;21.53;;;4.10;99.90;;;;;;4404853;28;658967;-61
2020/12/04 08:40:53;;;;;;;45.70;19.80;;;4.10;99.90;;;;;;4440294;28;659035;-61
2020/12/04 08:43:41;;;;;;;32.83;15.67;;;4.10;99.90;;;;;;4438194;28;658827;-60
2020/12/04 08:46:28;;;;;;;41.63;17.37;;;4.10;99.90;;;;;;4458472;28;658949;-60
2020/12/04 08:49:15;;;;;;;32.77;14.73;;;4.20;99.90;;;;;;4439441;28;657666;-62
2020/12/04 08:52:03;;;;;;;31.42;14.90;;;4.30;99.90;;;;;;4458068;28;658870;-59
2020/12/04 08:54:50;;;;;;;30.80;14.03;;;4.40;99.90;;;;;;4438629;28;657544;-61
2020/12/04 08:57:37;;;;;;;29.50;14.07;;;4.40;99.90;;;;;;4458324;28;659499;-59
2020/12/04 09:00:28;;;;;;;34.43;14.70;;;4.40;99.90;;;;;;4441030;28;657462;-61
2020/12/04 09:03:14;;;;;;;37.20;16.83;;;4.50;99.90;;;;;;4439222;28;657529;-62
2020/12/04 09:06:02;;;;;;;43.00;19.80;;;4.50;99.90;;;;;;4458272;28;657456;-59
2020/12/04 09:08:49;;;;;;;61.90;26.33;;;4.60;99.90;;;;;;4440515;28;657584;-62
2020/12/04 09:11:36;;;;;;;64.15;28.88;;;4.60;99.90;;;;;;4458029;28;658987;-59
2020/12/04 09:14:23;;;;;;;70.90;30.73;;;4.60;99.90;;;;;;4458948;28;658165;-60
2020/12/04 09:17:10;;;;;;;62.03;27.42;;;4.60;99.90;;;;;;4435170;28;658573;-59
2020/12/04 09:19:57;;;;;;;55.93;23.37;;;4.80;99.90;;;;;;4457882;28;659105;-60
2020/12/04 09:22:45;;;;;;;53.53;20.97;;;4.80;99.90;;;;;;4439090;28;657808;-62
2020/12/04 09:25:32;;;;;;;63.13;27.80;;;4.90;99.90;;;;;;4451024;28;659227;-60
2020/12/04 09:28:20;;;;;;;69.45;29.58;;;5.00;99.90;;;;;;4445867;28;657825;-62
2020/12/04 09:31:07;;;;;;;58.93;25.30;;;5.20;99.90;;;;;;4470966;28;659145;-60
2020/12/04 09:33:54;;;;;;;52.93;22.47;;;5.40;99.90;;;;;;4464564;28;657171;-59
2020/12/04 09:36:41;;;;;;;52.83;20.63;;;5.60;99.90;;;;;;4434882;28;657413;-60
2020/12/04 09:39:29;;;;;;;39.10;16.70;;;5.80;99.90;;;;;;4457918;28;657456;-60
2020/12/04 09:42:16;;;;;;;33.37;15.10;;;6.00;99.90;;;;;;4442658;28;658369;-60
2020/12/04 09:45:03;;;;;;;31.60;15.13;;;6.30;99.90;;;;;;4459870;28;657946;-59
2020/12/04 09:47:51;;;;;;;35.80;15.23;;;6.40;99.90;;;;;;4447823;28;657637;-60
2020/12/04 09:50:38;;;;;;;35.53;15.67;;;6.60;99.90;;;;;;4467444;28;659588;-60
2020/12/04 09:53:25;;;;;;;30.67;14.97;;;6.80;99.90;;;;;;4448237;28;658299;-61
2020/12/04 09:56:12;;;;;;;30.40;14.32;;;6.80;99.90;;;;;;4473427;28;659261;-60
2020/12/04 09:59:00;;;;;;;29.80;14.00;;;6.90;99.90;;;;;;4443331;28;657521;-62
2020/12/04 10:01:50;;;;;;;29.17;14.03;;;7.00;99.90;;;;;;4471535;28;658815;-59
2020/12/04 10:04:38;;;;;;;25.60;13.13;;;7.10;99.90;;;;;;4437457;28;659549;-60
2020/12/04 10:07:25;;;;;;;27.60;13.73;;;7.20;99.90;;;;;;4440052;28;657593;-59
2020/12/04 10:10:14;;;;;;;28.13;13.73;;;7.40;99.90;;;;;;4463354;28;658926;-60
2020/12/04 10:13:02;;;;;;;24.43;12.33;;;7.70;99.90;;;;;;4451584;28;659391;-59
2020/12/04 10:15:49;;;;;;;27.27;13.00;;;8.80;99.90;;;;;;4466992;28;657748;-60
2020/12/04 10:18:50;;;;;;;27.60;13.23;;;9.20;99.90;;;;;;4441553;28;658527;-60
2020/12/04 10:21:37;;;;;;;25.20;11.87;;;9.30;99.90;;;;;;4421406;28;659471;-60
2020/12/04 10:24:24;;;;;;;26.50;12.27;;;9.60;99.90;;;;;;4466700;28;658581;-61
2020/12/04 10:27:11;;;;;;;25.53;12.30;;;9.60;99.90;;;;;;4466629;28;657671;-60
2020/12/04 10:29:59;;;;;;;25.17;12.53;;;9.50;99.90;;;;;;4464395;28;657740;-60
2020/12/04 10:32:47;;;;;;;25.65;11.68;;;9.40;99.90;;;;;;4451148;28;658817;-60
2020/12/04 10:35:34;;;;;;;27.57;13.23;;;9.30;99.90;;;;;;4459886;28;657445;-60
2020/12/04 10:38:21;;;;;;;27.13;12.60;;;9.20;99.90;;;;;;4448977;28;657141;-60
2020/12/04 10:41:08;;;;;;;26.53;12.23;;;9.30;99.90;;;;;;4469979;28;660736;-60
2020/12/04 10:43:55;;;;;;;22.73;11.83;;;9.10;99.90;;;;;;4443214;28;657552;-61
2020/12/04 10:46:43;;;;;;;22.47;11.43;;;9.00;98.40;;;;;;4470321;28;658697;-60
2020/12/04 10:49:30;;;;;;;25.23;11.30;;;9.30;98.20;;;;;;4441748;28;657447;-61
2020/12/04 10:52:17;;;;;;;17.90;9.37;;;9.70;93.50;;;;;;4467602;28;658736;-59
2020/12/04 10:55:04;;;;;;;20.67;10.47;;;10.20;90.60;;;;;;4464217;28;656148;-59
2020/12/04 10:57:51;;;;;;;21.20;10.33;;;10.60;88.00;;;;;;4445720;28;659960;-61
2020/12/04 11:00:42;;;;;;;17.37;7.77;;;11.00;83.60;;;;;;4467016;28;659055;-61
2020/12/04 11:03:38;;;;;;;19.77;10.43;;;11.30;79.60;;;;;;4441836;28;657823;-59
2020/12/04 11:06:25;;;;;;;19.90;10.20;;;12.00;75.70;;;;;;4419909;27;660074;-61
2020/12/04 11:09:12;;;;;;;24.23;10.47;;;11.60;75.00;;;;;;4459943;28;659678;-60
2020/12/04 11:11:59;;;;;;;23.93;11.43;;;11.30;76.60;;;;;;4466124;28;658593;-61
2020/12/04 11:14:46;;;;;;;20.73;9.20;;;10.70;79.30;;;;;;4462477;28;658461;-59
2020/12/04 11:17:33;;;;;;;28.83;10.90;;;10.40;80.10;;;;;;4469040;28;658815;-59
2020/12/04 11:20:22;;;;;;;23.23;9.07;;;10.20;82.40;;;;;;4444267;28;659400;-60
2020/12/04 11:23:10;;;;;;;21.40;8.77;;;10.10;82.60;;;;;;4462299;28;657659;-61
2020/12/04 11:25:56;;;;;;;19.53;8.10;;;9.90;84.30;;;;;;4468776;28;657776;-60
2020/12/04 11:28:43;;;;;;;27.17;10.43;;;9.80;83.70;;;;;;4453133;28;656201;-59
2020/12/04 11:31:30;;;;;;;23.75;9.35;;;9.70;83.90;;;;;;4437436;28;657456;-59
2020/12/04 11:34:17;;;;;;;17.23;6.83;;;9.70;84.20;;;;;;4456972;28;657853;-59
2020/12/04 11:37:08;;;;;;;17.40;7.88;;;9.90;82.00;;;;;;4441503;28;656453;-60
2020/12/04 11:39:55;;;;;;;16.43;9.33;;;10.90;77.80;;;;;;4440548;28;658425;-59
2020/12/04 11:42:43;;;;;;;16.88;9.20;;;11.30;73.30;;;;;;4463132;28;659605;-59
2020/12/04 11:45:31;;;;;;;18.13;8.10;;;11.30;71.30;;;;;;4436301;28;658749;-60
2020/12/04 11:48:19;;;;;;;17.30;8.17;;;10.90;71.80;;;;;;4459867;28;657637;-59
2020/12/04 11:51:06;;;;;;;17.60;9.00;;;10.70;72.90;;;;;;4433406;28;658116;-59
2020/12/04 11:53:54;;;;;;;13.77;7.70;;;10.50;74.10;;;;;;4457100;28;658150;-59
2020/12/04 11:56:41;;;;;;;16.00;7.87;;;10.80;74.60;;;;;;4436356;28;657656;-59
2020/12/04 11:59:28;;;;;;;14.90;7.63;;;11.00;71.60;;;;;;4462675;28;659884;-59
2020/12/04 12:02:15;;;;;;;17.07;8.40;;;10.80;71.20;;;;;;4439923;28;657616;-60
2020/12/04 12:05:02;;;;;;;16.23;8.00;;;10.60;72.60;;;;;;4468548;28;658295;-59
2020/12/04 12:07:49;;;;;;;17.63;7.57;;;10.90;72.80;;;;;;4451919;28;657984;-59
2020/12/04 12:10:36;;;;;;;13.23;7.00;;;12.90;66.60;;;;;;4437697;28;657705;-60
2020/12/04 12:13:23;;;;;;;14.60;6.97;;;14.60;60.40;;;;;;4459109;28;657501;-61
2020/12/04 12:16:10;;;;;;;11.07;5.93;;;16.40;56.20;;;;;;4438333;28;658798;-61
2020/12/04 12:18:57;;;;;;;16.90;6.93;;;17.00;52.20;;;;;;4455095;28;658742;-60
2020/12/04 12:21:47;;;;;;;13.33;7.87;;;18.60;49.60;;;;;;4434763;28;657840;-62
2020/12/04 12:24:35;;;;;;;13.97;7.77;;;19.60;46.90;;;;;;4439041;28;657503;-62
2020/12/04 12:27:23;;;;;;;15.50;8.20;;;19.90;45.60;;;;;;4456939;28;658534;-60
2020/12/04 12:30:10;;;;;;;15.67;8.00;;;20.50;45.30;;;;;;4441770;28;657452;-61
2020/12/04 12:32:57;;;;;;;13.53;8.07;;;21.30;42.60;;;;;;4465772;28;659430;-61
2020/12/04 12:35:44;;;;;;;13.13;7.40;;;21.40;40.90;;;;;;4454528;28;658600;-63
2020/12/04 12:38:31;;;;;;;18.77;8.20;;;20.70;42.20;;;;;;4470506;28;657305;-61
2020/12/04 12:41:18;;;;;;;14.07;8.13;;;20.60;42.30;;;;;;4460323;28;657085;-60
2020/12/04 12:44:06;;;;;;;13.53;7.67;;;20.30;42.40;;;;;;4441475;28;658403;-62
2020/12/04 12:46:53;;;;;;;18.60;9.23;;;20.50;42.00;;;;;;4450964;28;658288;-61
2020/12/04 12:49:41;;;;;;;13.40;7.87;;;20.40;42.40;;;;;;4438505;28;659031;-61
2020/12/04 12:52:28;;;;;;;16.23;8.27;;;19.90;42.00;;;;;;4460101;28;659110;-60
2020/12/04 12:55:15;;;;;;;16.13;8.53;;;18.80;43.80;;;;;;4434279;28;657440;-62
2020/12/04 12:58:02;;;;;;;17.77;8.50;;;18.30;44.60;;;;;;4456225;28;658186;-60
2020/12/04 13:00:50;;;;;;;16.53;8.40;;;18.50;45.00;;;;;;4450695;28;657348;-60
2020/12/04 13:03:36;;;;;;;14.90;8.33;;;18.40;44.90;;;;;;4432775;28;658013;-61
2020/12/04 13:06:23;;;;;;;14.10;7.10;;;18.00;45.50;;;;;;4455634;28;658854;-60
2020/12/04 13:09:11;;;;;;;15.40;8.67;;;17.40;46.70;;;;;;4435728;28;657302;-61
2020/12/04 13:11:58;;;;;;;13.97;7.80;;;17.70;46.50;;;;;;4454977;28;658328;-60
2020/12/04 13:14:45;;;;;;;12.97;7.37;;;17.10;46.50;;;;;;4430788;28;657604;-61
2020/12/04 13:17:33;;;;;;;14.37;7.23;;;16.40;48.10;;;;;;4460328;28;659602;-60
2020/12/04 13:20:20;;;;;;;12.97;7.20;;;16.50;48.70;;;;;;4436126;28;658326;-62
2020/12/04 13:23:18;;;;;;;14.83;6.57;;;17.00;48.00;;;;;;4454941;28;659704;-61
2020/12/04 13:26:05;;;;;;;13.40;7.40;;;17.40;47.20;;;;;;4409045;28;657634;-61
2020/12/04 13:28:51;;;;;;;12.18;6.75;;;17.50;46.60;;;;;;4460750;28;658341;-60
2020/12/04 13:31:38;;;;;;;13.97;7.80;;;17.70;46.90;;;;;;4469670;28;657187;-61
2020/12/04 13:34:27;;;;;;;15.17;7.47;;;17.50;45.80;;;;;;4443000;28;659111;-61
2020/12/04 13:37:14;;;;;;;16.03;8.27;;;17.30;47.00;;;;;;4456263;28;657841;-62
2020/12/04 13:40:01;;;;;;;14.47;8.73;;;17.90;46.70;;;;;;4474815;28;658208;-60
2020/12/04 13:42:48;;;;;;;16.97;8.20;;;18.40;45.50;;;;;;4470543;28;659405;-60
2020/12/04 13:45:35;;;;;;;16.23;9.27;;;18.50;44.80;;;;;;4451374;28;658153;-61
2020/12/04 13:48:22;;;;;;;18.02;9.55;;;18.20;45.10;;;;;;4463237;28;658027;-60
2020/12/04 13:51:10;;;;;;;19.20;10.13;;;16.80;46.70;;;;;;4450675;28;659172;-61
2020/12/04 13:53:57;;;;;;;22.20;11.17;;;15.30;49.60;;;;;;4468907;28;660074;-60
2020/12/04 13:56:44;;;;;;;17.47;10.13;;;13.80;52.30;;;;;;4446954;28;658792;-61
2020/12/04 13:59:31;;;;;;;23.97;10.83;;;12.60;55.10;;;;;;4472239;28;658544;-60
2020/12/04 14:02:18;;;;;;;23.43;11.57;;;11.70;57.70;;;;;;4468627;28;658941;-60
2020/12/04 14:05:05;;;;;;;33.20;15.70;;;11.10;60.20;;;;;;4450287;28;658685;-59
2020/12/04 14:07:53;;;;;;;33.20;15.93;;;10.80;61.50;;;;;;4461834;28;660316;-59
2020/12/04 14:10:40;;;;;;;36.60;18.05;;;10.40;62.60;;;;;;4441814;28;658854;-59